createdAt,value
2022-12-20T00:02:01.710Z,14.37
2022-12-20T00:07:07.230Z,14.70
2022-12-20T00:12:12.745Z,14.43
2022-12-20T00:17:18.255Z,13.93
2022-12-20T00:22:23.748Z,15.90
2022-12-20T00:27:30.037Z,15.20
2022-12-20T00:32:35.533Z,10.73
2022-12-20T00:37:41.035Z,13.47
2022-12-20T00:42:46.497Z,13.43
2022-12-20T00:47:51.891Z,13.70
2022-12-20T00:52:57.455Z,13.53
2022-12-20T00:58:02.848Z,13.63
2022-12-20T01:03:09.038Z,12.97
2022-12-20T01:08:14.699Z,13.73
2022-12-20T01:13:20.096Z,14.97
2022-12-20T01:18:25.503Z,15.33
2022-12-20T01:23:31.324Z,13.03
2022-12-20T01:28:38.165Z,14.70
2022-12-20T01:33:44.248Z,14.17
2022-12-20T01:38:50.202Z,12.80
2022-12-20T01:43:58.829Z,10.03
2022-12-20T01:49:11.010Z,12.77
2022-12-20T01:54:19.633Z,13.20
2022-12-20T01:59:28.257Z,12.83
2022-12-20T02:04:33.753Z,12.40
2022-12-20T02:09:40.392Z,14.27
2022-12-20T02:15:08.315Z,13.00
2022-12-20T02:20:31.244Z,11.03
2022-12-20T02:25:49.164Z,13.33
2022-12-20T02:30:56.882Z,12.93
2022-12-20T02:36:05.229Z,10.33
2022-12-20T02:41:22.916Z,14.17
2022-12-20T02:46:29.139Z,13.17
2022-12-20T02:51:35.841Z,12.30
2022-12-20T02:56:44.509Z,11.00
2022-12-20T03:01:53.334Z,12.90
2022-12-20T03:07:02.398Z,14.57
2022-12-20T03:12:09.672Z,13.27
2022-12-20T03:17:15.463Z,14.20
2022-12-20T03:22:21.141Z,12.53
2022-12-20T03:27:28.234Z,13.60
2022-12-20T03:32:34.362Z,12.50
2022-12-20T03:37:40.458Z,11.93
2022-12-20T03:42:46.229Z,11.90
2022-12-20T03:47:51.632Z,12.40
2022-12-20T03:52:58.049Z,11.20
2022-12-20T03:58:04.049Z,12.03
2022-12-20T04:03:11.542Z,9.57
2022-12-20T04:08:17.370Z,12.80
2022-12-20T04:13:24.466Z,12.27
2022-12-20T04:18:30.355Z,11.83
2022-12-20T04:23:38.563Z,11.60
2022-12-20T04:28:44.747Z,10.43
2022-12-20T04:33:50.772Z,12.27
2022-12-20T04:38:57.841Z,11.60
2022-12-20T04:44:03.585Z,12.23
2022-12-20T04:49:10.653Z,12.50
2022-12-20T04:54:17.721Z,12.23
2022-12-20T04:59:28.568Z,11.53
2022-12-20T05:04:37.840Z,11.97
2022-12-20T05:09:43.607Z,10.80
2022-12-20T05:14:49.407Z,10.77
2022-12-20T05:19:56.675Z,11.73
2022-12-20T05:25:20.236Z,10.87
2022-12-20T05:30:27.510Z,11.47
2022-12-20T05:35:33.547Z,10.97
2022-12-20T05:40:41.844Z,11.07
2022-12-20T05:45:51.623Z,9.73
2022-12-20T05:50:58.918Z,10.47
2022-12-20T05:56:06.605Z,11.10
2022-12-20T06:01:13.832Z,11.50
2022-12-20T06:06:19.406Z,10.80
2022-12-20T06:11:29.827Z,11.13
2022-12-20T06:16:37.071Z,11.27
2022-12-20T06:21:43.752Z,11.53
2022-12-20T06:26:51.104Z,10.43
2022-12-20T06:31:57.391Z,10.00
2022-12-20T06:37:04.755Z,12.13
2022-12-20T06:42:11.914Z,11.13
2022-12-20T06:47:18.813Z,10.67
2022-12-20T06:52:26.071Z,11.30
2022-12-20T06:57:33.368Z,11.50
2022-12-20T07:02:39.808Z,11.67
2022-12-20T07:07:45.739Z,11.20
2022-12-20T07:12:53.048Z,11.07
2022-12-20T07:17:58.559Z,10.90
2022-12-20T07:23:04.544Z,10.00
2022-12-20T07:28:10.017Z,11.47
2022-12-20T07:33:15.414Z,10.93
2022-12-20T07:38:20.931Z,9.57
2022-12-20T07:43:26.624Z,10.60
2022-12-20T07:48:33.072Z,10.00
2022-12-20T07:53:41.521Z,11.37
2022-12-20T07:58:47.617Z,9.10
2022-12-20T08:03:55.742Z,11.40
2022-12-20T08:09:04.610Z,10.80
2022-12-20T08:14:11.457Z,10.73
2022-12-20T08:19:16.920Z,11.37
2022-12-20T08:24:22.382Z,11.57
2022-12-20T08:29:27.918Z,10.80
2022-12-20T08:34:33.934Z,10.73
2022-12-20T08:39:39.338Z,10.53
2022-12-20T08:44:44.822Z,10.30
2022-12-20T08:49:50.221Z,10.77
2022-12-20T08:54:55.677Z,10.23
2022-12-20T09:00:01.546Z,10.97
2022-12-20T09:05:07.570Z,11.03
2022-12-20T09:10:14.849Z,9.70
2022-12-20T09:15:20.323Z,10.10
2022-12-20T09:20:27.258Z,9.73
2022-12-20T09:25:34.216Z,10.10
2022-12-20T09:30:39.769Z,10.23
2022-12-20T09:35:48.833Z,10.57
2022-12-20T09:40:57.614Z,11.03
2022-12-20T09:46:05.191Z,11.23
2022-12-20T09:51:16.435Z,11.07
2022-12-20T09:56:28.035Z,10.87
2022-12-20T10:01:39.864Z,11.70
2022-12-20T10:07:14.575Z,11.80
2022-12-20T10:12:23.150Z,11.03
2022-12-20T10:17:53.133Z,10.43
2022-12-20T10:23:07.843Z,11.40
2022-12-20T10:28:16.299Z,11.80
2022-12-20T10:33:25.567Z,11.47
2022-12-20T10:38:34.096Z,10.60
2022-12-20T10:43:45.822Z,10.50
2022-12-20T10:48:51.905Z,10.43
2022-12-20T10:54:03.405Z,11.50
2022-12-20T10:59:21.373Z,11.30
2022-12-20T11:04:35.862Z,10.63
2022-12-20T11:09:44.532Z,11.63
2022-12-20T11:14:50.463Z,11.73
2022-12-20T11:20:21.827Z,11.67
2022-12-20T11:25:44.974Z,11.63
2022-12-20T11:31:05.547Z,10.23
2022-12-20T11:36:26.388Z,10.47
2022-12-20T11:41:43.619Z,10.53
2022-12-20T11:46:52.458Z,10.23
2022-12-20T11:52:13.074Z,11.13
2022-12-20T11:57:21.543Z,11.03
2022-12-20T12:02:38.702Z,10.67
2022-12-20T12:07:47.405Z,10.40
2022-12-20T12:13:14.159Z,10.73
2022-12-20T12:18:25.205Z,11.07
2022-12-20T12:23:53.413Z,10.97
2022-12-20T12:29:04.377Z,11.37
2022-12-20T12:34:28.123Z,10.67
2022-12-20T12:39:54.274Z,11.87
2022-12-20T12:45:03.161Z,11.00
2022-12-20T12:50:20.537Z,10.37
2022-12-20T12:55:47.059Z,11.27
2022-12-20T13:01:08.364Z,10.50
2022-12-20T13:06:29.181Z,11.30
2022-12-20T13:11:41.460Z,10.87
2022-12-20T13:17:11.522Z,11.73
2022-12-20T13:22:17.879Z,10.77
2022-12-20T13:27:27.192Z,11.17
2022-12-20T13:33:11.726Z,11.23
2022-12-20T13:38:41.355Z,10.73
2022-12-20T13:43:48.967Z,9.67
2022-12-20T13:48:57.059Z,9.87
2022-12-20T13:54:05.690Z,10.27
2022-12-20T13:59:23.346Z,10.27
2022-12-20T14:04:31.501Z,10.33
2022-12-20T14:09:39.060Z,9.80
2022-12-20T14:14:46.717Z,11.40
2022-12-20T14:20:10.545Z,10.33
2022-12-20T14:25:18.982Z,10.43
2022-12-20T14:30:33.585Z,10.70
2022-12-20T14:35:40.555Z,11.17
2022-12-20T14:40:52.088Z,9.77
2022-12-20T14:46:11.616Z,11.17
2022-12-20T14:51:22.979Z,10.60
2022-12-20T14:56:32.208Z,10.47
2022-12-20T15:01:40.094Z,11.70
2022-12-20T15:06:48.232Z,11.20
2022-12-20T15:11:54.370Z,10.83
2022-12-20T15:16:59.879Z,10.30
2022-12-20T15:22:05.748Z,12.70
2022-12-20T15:27:14.426Z,10.63
2022-12-20T15:32:23.517Z,10.87
2022-12-20T15:37:29.065Z,10.50
2022-12-20T15:42:35.553Z,10.33
2022-12-20T15:47:41.171Z,10.43
2022-12-20T15:52:46.718Z,11.37
2022-12-20T15:57:52.184Z,12.83
2022-12-20T16:02:59.707Z,11.77
2022-12-20T16:08:05.998Z,10.27
2022-12-20T16:13:21.050Z,11.20
2022-12-20T16:18:24.613Z,11.27
2022-12-20T16:23:30.795Z,11.33
2022-12-20T16:28:36.177Z,11.77
2022-12-20T16:33:42.118Z,11.63
2022-12-20T16:38:47.658Z,12.10
2022-12-20T16:43:53.509Z,11.87
2022-12-20T16:49:01.072Z,10.87
2022-12-20T16:54:19.384Z,12.67
2022-12-20T16:59:20.678Z,11.90
2022-12-20T17:04:27.005Z,13.37
2022-12-20T17:09:32.633Z,13.63
2022-12-20T17:14:38.247Z,12.67
2022-12-20T17:19:43.722Z,13.50
2022-12-20T17:24:49.262Z,12.27
2022-12-20T17:29:54.840Z,12.63
2022-12-20T17:35:00.345Z,12.97
2022-12-20T17:40:06.956Z,12.90
2022-12-20T17:45:25.660Z,12.57
2022-12-20T17:50:31.206Z,11.87
2022-12-20T17:55:36.944Z,13.07
2022-12-20T18:00:42.499Z,11.63
2022-12-20T18:05:48.027Z,13.03
2022-12-20T18:10:53.631Z,13.53
2022-12-20T18:15:59.169Z,12.73
2022-12-20T18:21:10.305Z,13.47
2022-12-20T18:26:24.765Z,12.43
2022-12-20T18:31:34.026Z,13.90
2022-12-20T18:36:40.920Z,13.33
2022-12-20T18:41:47.777Z,13.27
2022-12-20T18:46:53.883Z,12.83
2022-12-20T18:52:00.969Z,14.37
2022-12-20T18:57:06.606Z,12.07
2022-12-20T19:02:15.243Z,14.83
2022-12-20T19:07:20.690Z,13.87
2022-12-20T19:12:26.299Z,14.60
2022-12-20T19:17:31.846Z,14.20
2022-12-20T19:22:37.724Z,13.93
2022-12-20T19:27:43.333Z,14.90
2022-12-20T19:32:49.143Z,13.63
2022-12-20T19:37:54.557Z,13.53
2022-12-20T19:43:00.699Z,14.10
2022-12-20T19:48:06.927Z,14.50
2022-12-20T19:53:12.527Z,13.87
2022-12-20T19:58:18.130Z,13.60
2022-12-20T20:03:24.517Z,13.23
2022-12-20T20:08:30.076Z,15.10
2022-12-20T20:13:35.787Z,13.73
2022-12-20T20:18:41.793Z,13.33
2022-12-20T20:23:47.803Z,15.17
2022-12-20T20:28:54.124Z,13.90
2022-12-20T20:34:00.862Z,13.30
2022-12-20T20:39:06.741Z,13.07
2022-12-20T20:44:13.657Z,13.50
2022-12-20T20:49:19.900Z,12.70
2022-12-20T20:54:25.459Z,11.67
2022-12-20T20:59:30.942Z,12.37
2022-12-20T21:04:36.463Z,14.00
2022-12-20T21:09:41.954Z,13.47
2022-12-20T21:15:20.529Z,14.37
2022-12-20T21:19:55.138Z,16.93
2022-12-20T21:25:00.698Z,13.87
2022-12-20T21:30:07.064Z,15.20
2022-12-20T21:35:12.697Z,13.40
2022-12-20T21:40:18.529Z,14.90
2022-12-20T21:45:24.168Z,15.73
2022-12-20T21:50:29.589Z,15.07
2022-12-20T21:55:35.300Z,14.43
2022-12-20T22:00:40.893Z,13.33
2022-12-20T22:05:51.801Z,15.67
2022-12-20T22:11:05.359Z,14.90
2022-12-20T22:16:16.945Z,14.23
2022-12-20T22:21:26.065Z,14.87
2022-12-20T22:26:33.680Z,18.48
2022-12-20T22:31:39.461Z,14.87
2022-12-20T22:36:45.047Z,14.47
2022-12-20T22:41:50.581Z,14.83
2022-12-20T22:46:56.089Z,15.70
2022-12-20T22:52:07.432Z,14.70
2022-12-20T22:57:10.606Z,14.00
2022-12-20T23:02:16.336Z,14.60
2022-12-20T23:07:23.273Z,15.47
2022-12-20T23:12:46.646Z,15.73
2022-12-20T23:17:52.206Z,15.07
2022-12-20T23:22:57.690Z,14.13
2022-12-20T23:28:03.403Z,16.00
2022-12-20T23:33:08.785Z,15.30
2022-12-20T23:38:14.267Z,15.53
2022-12-20T23:43:19.914Z,14.73
2022-12-20T23:48:25.483Z,16.10
2022-12-20T23:53:31.184Z,13.67
2022-12-20T23:58:37.645Z,14.87
